sensor_id;sensor_type;location;lat;lon;timestamp;pressure;altitude;pressure_sealevel;temperature;humidity
17505;BME280;8870;50.950;11.762;2022-08-20T00:00:26;98244.53;;;17.80;100.00
17505;BME280;8870;50.950;11.762;2022-08-20T00:05:34;98240.75;;;17.81;100.00
17505;BME280;8870;50.950;11.762;2022-08-20T00:10:42;98238.88;;;17.82;100.00
17505;BME280;8870;50.950;11.762;2022-08-20T00:15:56;98230.69;;;17.82;100.00
17505;BME280;8870;50.950;11.762;2022-08-20T00:21:03;98245.59;;;17.79;100.00
17505;BME280;8870;50.950;11.762;2022-08-20T00:26:09;98245.59;;;17.79;100.00
17505;BME280;8870;50.950;11.762;2022-08-20T00:31:18;98239.72;;;17.76;100.00
17505;BME280;8870;50.950;11.762;2022-08-20T00:36:23;98237.19;;;17.74;100.00
17505;BME280;8870;50.950;11.762;2022-08-20T00:41:41;98245.78;;;17.71;100.00
17505;BME280;8870;50.950;11.762;2022-08-20T00:46:50;98240.34;;;17.64;100.00
17505;BME280;8870;50.950;11.762;2022-08-20T00:51:59;98248.09;;;17.61;100.00
17505;BME280;8870;50.950;11.762;2022-08-20T00:57:08;98250.41;;;17.57;100.00
17505;BME280;8870;50.950;11.762;2022-08-20T01:02:18;98244.56;;;17.53;100.00
17505;BME280;8870;50.950;11.762;2022-08-20T01:07:26;98252.31;;;17.50;100.00
17505;BME280;8870;50.950;11.762;2022-08-20T01:12:36;98253.56;;;17.47;100.00
17505;BME280;8870;50.950;11.762;2022-08-20T01:17:50;98248.97;;;17.41;100.00
17505;BME280;8870;50.950;11.762;2022-08-20T01:23:02;98254.81;;;17.38;100.00
17505;BME280;8870;50.950;11.762;2022-08-20T01:28:29;98255.88;;;17.37;100.00
17505;BME280;8870;50.950;11.762;2022-08-20T01:33:35;98258.59;;;17.37;100.00
17505;BME280;8870;50.950;11.762;2022-08-20T01:38:43;98259.63;;;17.36;100.00
17505;BME280;8870;50.950;11.762;2022-08-20T01:43:58;98261.75;;;17.34;100.00
17505;BME280;8870;50.950;11.762;2022-08-20T01:49:07;98260.91;;;17.33;100.00
17505;BME280;8870;50.950;11.762;2022-08-20T01:54:14;98264.03;;;17.23;100.00
17505;BME280;8870;50.950;11.762;2022-08-20T01:59:22;98258.81;;;17.22;100.00
17505;BME280;8870;50.950;11.762;2022-08-20T02:04:26;98273.03;;;17.17;100.00
17505;BME280;8870;50.950;11.762;2022-08-20T02:09:34;98276.59;;;17.18;100.00
17505;BME280;8870;50.950;11.762;2022-08-20T02:14:46;98285.38;;;17.13;100.00
17505;BME280;8870;50.950;11.762;2022-08-20T02:19:54;98281.19;;;17.04;100.00
17505;BME280;8870;50.950;11.762;2022-08-20T02:25:00;98290.78;;;17.00;100.00
17505;BME280;8870;50.950;11.762;2022-08-20T02:30:11;98293.09;;;16.96;100.00
17505;BME280;8870;50.950;11.762;2022-08-20T02:35:29;98297.91;;;16.94;100.00
17505;BME280;8870;50.950;11.762;2022-08-20T02:40:35;98301.66;;;16.93;100.00
17505;BME280;8870;50.950;11.762;2022-08-20T02:45:42;98305.22;;;16.93;100.00
17505;BME280;8870;50.950;11.762;2022-08-20T02:50:49;98298.94;;;16.93;100.00
17505;BME280;8870;50.950;11.762;2022-08-20T02:55:55;98295.78;;;16.89;100.00
17505;BME280;8870;50.950;11.762;2022-08-20T03:01:06;98292.88;;;16.91;100.00
17505;BME280;8870;50.950;11.762;2022-08-20T03:06:13;98288.25;;;16.91;100.00
17505;BME280;8870;50.950;11.762;2022-08-20T03:11:18;98298.75;;;16.94;100.00
17505;BME280;8870;50.950;11.762;2022-08-20T03:16:26;98300.44;;;16.96;100.00
17505;BME280;8870;50.950;11.762;2022-08-20T03:21:33;98295.63;;;16.98;100.00
17505;BME280;8870;50.950;11.762;2022-08-20T03:26:37;98304.41;;;17.00;100.00
17505;BME280;8870;50.950;11.762;2022-08-20T03:31:45;98302.31;;;17.02;100.00
17505;BME280;8870;50.950;11.762;2022-08-20T03:36:50;98293.97;;;17.03;100.00
17505;BME280;8870;50.950;11.762;2022-08-20T03:41:55;98295.66;;;17.04;100.00
17505;BME280;8870;50.950;11.762;2022-08-20T03:47:02;98296.47;;;17.05;100.00
17505;BME280;8870;50.950;11.762;2022-08-20T03:52:10;98287.25;;;17.06;100.00
17505;BME280;8870;50.950;11.762;2022-08-20T03:57:15;98290.22;;;17.04;100.00
17505;BME280;8870;50.950;11.762;2022-08-20T04:02:23;98294.78;;;17.04;100.00
17505;BME280;8870;50.950;11.762;2022-08-20T04:07:28;98287.66;;;17.03;100.00
17505;BME280;8870;50.950;11.762;2022-08-20T04:12:33;98287.25;;;16.99;100.00
17505;BME280;8870;50.950;11.762;2022-08-20T04:17:54;98288.94;;;17.00;100.00
17505;BME280;8870;50.950;11.762;2022-08-20T04:22:59;98286.22;;;17.00;100.00
17505;BME280;8870;50.950;11.762;2022-08-20T04:28:05;98289.75;;;17.01;100.00
17505;BME280;8870;50.950;11.762;2022-08-20T04:33:17;98293.13;;;17.03;100.00
17505;BME280;8870;50.950;11.762;2022-08-20T04:38:35;98295.84;;;17.03;100.00
17505;BME280;8870;50.950;11.762;2022-08-20T04:43:53;98304.63;;;17.05;100.00
17505;BME280;8870;50.950;11.762;2022-08-20T04:49:01;98312.81;;;17.05;100.00
17505;BME280;8870;50.950;11.762;2022-08-20T04:54:06;98314.47;;;17.06;100.00
17505;BME280;8870;50.950;11.762;2022-08-20T04:59:10;98317.84;;;17.08;100.00
17505;BME280;8870;50.950;11.762;2022-08-20T05:04:18;98323.94;;;17.10;100.00
17505;BME280;8870;50.950;11.762;2022-08-20T05:09:23;98324.97;;;17.09;100.00
17505;BME280;8870;50.950;11.762;2022-08-20T05:14:27;98327.06;;;17.07;100.00
17505;BME280;8870;50.950;11.762;2022-08-20T05:19:34;98337.53;;;17.10;100.00
17505;BME280;8870;50.950;11.762;2022-08-20T05:24:41;98336.47;;;17.11;100.00
17505;BME280;8870;50.950;11.762;2022-08-20T05:29:45;98334.59;;;17.12;100.00
17505;BME280;8870;50.950;11.762;2022-08-20T05:34:55;98344.22;;;17.14;100.00
17505;BME280;8870;50.950;11.762;2022-08-20T05:40:01;98350.53;;;17.15;100.00
17505;BME280;8870;50.950;11.762;2022-08-20T05:45:11;98343.00;;;17.17;100.00
17505;BME280;8870;50.950;11.762;2022-08-20T05:50:20;98342.53;;;17.13;100.00
17505;BME280;8870;50.950;11.762;2022-08-20T05:55:25;98344.66;;;17.18;100.00
17505;BME280;8870;50.950;11.762;2022-08-20T06:00:30;98342.78;;;17.18;100.00
17505;BME280;8870;50.950;11.762;2022-08-20T06:05:38;98338.63;;;17.22;100.00
17505;BME280;8870;50.950;11.762;2022-08-20T06:10:43;98340.25;;;17.23;100.00
17505;BME280;8870;50.950;11.762;2022-08-20T06:15:51;98333.78;;;17.24;100.00
17505;BME280;8870;50.950;11.762;2022-08-20T06:20:59;98347.41;;;17.31;100.00
17505;BME280;8870;50.950;11.762;2022-08-20T06:26:04;98345.53;;;17.32;100.00
17505;BME280;8870;50.950;11.762;2022-08-20T06:31:09;98353.91;;;17.37;100.00
17505;BME280;8870;50.950;11.762;2022-08-20T06:36:17;98356.84;;;17.42;100.00
17505;BME280;8870;50.950;11.762;2022-08-20T06:41:22;98363.78;;;17.51;100.00
17505;BME280;8870;50.950;11.762;2022-08-20T06:46:37;98370.50;;;17.62;100.00
17505;BME280;8870;50.950;11.762;2022-08-20T06:51:44;98369.03;;;17.73;100.00
17505;BME280;8870;50.950;11.762;2022-08-20T06:56:52;98379.53;;;17.83;100.00
17505;BME280;8870;50.950;11.762;2022-08-20T07:01:57;98368.81;;;17.88;100.00
17505;BME280;8870;50.950;11.762;2022-08-20T07:07:04;98361.69;;;17.94;100.00
17505;BME280;8870;50.950;11.762;2022-08-20T07:12:09;98369.69;;;18.02;100.00
17505;BME280;8870;50.950;11.762;2022-08-20T07:17:14;98368.84;;;18.08;100.00
17505;BME280;8870;50.950;11.762;2022-08-20T07:22:21;98372.19;;;18.17;100.00
17505;BME280;8870;50.950;11.762;2022-08-20T07:27:25;98374.06;;;18.23;100.00
17505;BME280;8870;50.950;11.762;2022-08-20T07:32:30;98373.63;;;18.33;100.00
17505;BME280;8870;50.950;11.762;2022-08-20T07:37:45;98366.47;;;18.39;100.00
17505;BME280;8870;50.950;11.762;2022-08-20T07:42:51;98374.22;;;18.48;100.00
17505;BME280;8870;50.950;11.762;2022-08-20T07:48:05;98371.03;;;18.58;100.00
17505;BME280;8870;50.950;11.762;2022-08-20T07:53:13;98376.28;;;18.67;100.00
17505;BME280;8870;50.950;11.762;2022-08-20T07:58:20;98369.13;;;18.72;100.00
17505;BME280;8870;50.950;11.762;2022-08-20T08:03:33;98368.88;;;18.81;100.00
17505;BME280;8870;50.950;11.762;2022-08-20T08:08:52;98368.63;;;18.89;100.00
17505;BME280;8870;50.950;11.762;2022-08-20T08:13:58;98367.97;;;19.00;100.00
17505;BME280;8870;50.950;11.762;2022-08-20T08:19:05;98377.16;;;19.13;100.00
17505;BME280;8870;50.950;11.762;2022-08-20T08:24:16;98384.06;;;19.22;100.00
17505;BME280;8870;50.950;11.762;2022-08-20T08:29:27;98377.91;;;19.33;100.00
17505;BME280;8870;50.950;11.762;2022-08-20T08:34:34;98377.41;;;19.43;100.00
17505;BME280;8870;50.950;11.762;2022-08-20T08:39:42;98364.31;;;19.52;100.00
17505;BME280;8870;50.950;11.762;2022-08-20T08:44:46;98363.59;;;19.63;100.00
17505;BME280;8870;50.950;11.762;2022-08-20T08:49:52;98373.81;;;19.75;100.00
17505;BME280;8870;50.950;11.762;2022-08-20T08:55:02;98372.75;;;19.76;100.00
17505;BME280;8870;50.950;11.762;2022-08-20T09:00:11;98371.25;;;19.80;100.00
17505;BME280;8870;50.950;11.762;2022-08-20T09:05:19;98377.31;;;19.89;100.00
17505;BME280;8870;50.950;11.762;2022-08-20T09:10:27;98372.41;;;19.97;100.00
17505;BME280;8870;50.950;11.762;2022-08-20T09:15:32;98350.38;;;19.92;100.00
17505;BME280;8870;50.950;11.762;2022-08-20T09:20:37;98351.38;;;19.98;100.00
17505;BME280;8870;50.950;11.762;2022-08-20T09:25:44;98357.44;;;20.00;100.00
17505;BME280;8870;50.950;11.762;2022-08-20T09:30:49;98361.63;;;20.02;100.00
17505;BME280;8870;50.950;11.762;2022-08-20T09:35:53;98368.25;;;20.13;100.00
17505;BME280;8870;50.950;11.762;2022-08-20T09:41:00;98367.13;;;20.21;100.00
17505;BME280;8870;50.950;11.762;2022-08-20T09:46:05;98357.75;;;20.36;100.00
17505;BME280;8870;50.950;11.762;2022-08-20T09:51:10;98361.84;;;20.45;100.00
17505;BME280;8870;50.950;11.762;2022-08-20T09:56:17;98353.19;;;20.48;100.00
17505;BME280;8870;50.950;11.762;2022-08-20T10:01:22;98351.97;;;20.62;100.00
17505;BME280;8870;50.950;11.762;2022-08-20T10:06:27;98344.34;;;20.64;100.00
17505;BME280;8870;50.950;11.762;2022-08-20T10:11:40;98335.00;;;20.72;100.00
17505;BME280;8870;50.950;11.762;2022-08-20T10:16:45;98333.19;;;20.85;100.00
17505;BME280;8870;50.950;11.762;2022-08-20T10:21:51;98342.09;;;20.99;100.00
17505;BME280;8870;50.950;11.762;2022-08-20T10:26:59;98334.69;;;20.99;100.00
17505;BME280;8870;50.950;11.762;2022-08-20T10:32:09;98343.88;;;21.05;100.00
17505;BME280;8870;50.950;11.762;2022-08-20T10:37:17;98345.69;;;21.11;100.00
17505;BME280;8870;50.950;11.762;2022-08-20T10:42:24;98343.72;;;21.18;100.00
17505;BME280;8870;50.950;11.762;2022-08-20T10:47:31;98347.88;;;21.21;100.00
17505;BME280;8870;50.950;11.762;2022-08-20T10:52:36;98345.41;;;21.31;100.00
17505;BME280;8870;50.950;11.762;2022-08-20T10:57:43;98342.72;;;21.43;100.00
17505;BME280;8870;50.950;11.762;2022-08-20T11:02:48;98335.03;;;21.64;100.00
17505;BME280;8870;50.950;11.762;2022-08-20T11:07:53;98341.97;;;21.78;100.00
17505;BME280;8870;50.950;11.762;2022-08-20T11:13:01;98333.88;;;21.83;100.00
17505;BME280;8870;50.950;11.762;2022-08-20T11:18:07;98333.03;;;21.95;100.00
17505;BME280;8870;50.950;11.762;2022-08-20T11:23:13;98327.22;;;22.03;100.00
17505;BME280;8870;50.950;11.762;2022-08-20T11:28:20;98335.56;;;22.08;100.00
17505;BME280;8870;50.950;11.762;2022-08-20T11:33:32;98339.13;;;22.21;100.00
17505;BME280;8870;50.950;11.762;2022-08-20T11:38:37;98339.59;;;22.17;100.00
17505;BME280;8870;50.950;11.762;2022-08-20T11:43:44;98346.66;;;22.13;100.00
17505;BME280;8870;50.950;11.762;2022-08-20T11:49:09;98340.81;;;21.98;100.00
17505;BME280;8870;50.950;11.762;2022-08-20T11:54:14;98335.69;;;22.13;100.00
17505;BME280;8870;50.950;11.762;2022-08-20T11:59:21;98337.34;;;22.26;100.00
17505;BME280;8870;50.950;11.762;2022-08-20T12:04:26;98339.34;;;22.31;100.00
17505;BME280;8870;50.950;11.762;2022-08-20T12:09:34;98322.88;;;22.31;100.00
17505;BME280;8870;50.950;11.762;2022-08-20T12:14:53;98310.75;;;22.51;100.00
17505;BME280;8870;50.950;11.762;2022-08-20T12:20:01;98313.50;;;22.51;100.00
17505;BME280;8870;50.950;11.762;2022-08-20T12:25:07;98300.78;;;22.61;100.00
17505;BME280;8870;50.950;11.762;2022-08-20T12:30:16;98299.31;;;22.71;100.00
17505;BME280;8870;50.950;11.762;2022-08-20T12:35:21;98298.81;;;22.86;100.00
17505;BME280;8870;50.950;11.762;2022-08-20T12:40:32;98296.06;;;22.86;100.00
17505;BME280;8870;50.950;11.762;2022-08-20T12:45:39;98301.75;;;22.96;100.00
17505;BME280;8870;50.950;11.762;2022-08-20T12:50:44;98295.00;;;22.87;100.00
17505;BME280;8870;50.950;11.762;2022-08-20T12:55:51;98302.44;;;23.03;100.00
17505;BME280;8870;50.950;11.762;2022-08-20T13:00:58;98308.63;;;23.11;100.00
17505;BME280;8870;50.950;11.762;2022-08-20T13:06:04;98298.41;;;23.23;100.00
17505;BME280;8870;50.950;11.762;2022-08-20T13:11:09;98306.50;;;23.30;100.00
17505;BME280;8870;50.950;11.762;2022-08-20T13:16:18;98307.06;;;23.44;100.00
17505;BME280;8870;50.950;11.762;2022-08-20T13:21:25;98311.53;;;23.50;100.00
17505;BME280;8870;50.950;11.762;2022-08-20T13:26:31;98313.97;;;23.63;100.00
17505;BME280;8870;50.950;11.762;2022-08-20T13:31:40;98316.41;;;23.77;100.00
17505;BME280;8870;50.950;11.762;2022-08-20T13:36:45;98311.38;;;23.74;100.00
17505;BME280;8870;50.950;11.762;2022-08-20T13:41:50;98308.31;;;23.70;100.00
17505;BME280;8870;50.950;11.762;2022-08-20T13:46:58;98301.56;;;23.78;100.00
17505;BME280;8870;50.950;11.762;2022-08-20T13:52:03;98304.63;;;23.81;100.00
17505;BME280;8870;50.950;11.762;2022-08-20T13:57:14;98305.22;;;23.83;100.00
17505;BME280;8870;50.950;11.762;2022-08-20T14:02:23;98304.53;;;23.93;100.00
17505;BME280;8870;50.950;11.762;2022-08-20T14:07:29;98309.13;;;23.88;100.00
17505;BME280;8870;50.950;11.762;2022-08-20T14:12:34;98299.41;;;23.80;100.00
17505;BME280;8870;50.950;11.762;2022-08-20T14:17:46;98312.78;;;23.59;100.00
17505;BME280;8870;50.950;11.762;2022-08-20T14:22:52;98313.88;;;23.58;100.00
17505;BME280;8870;50.950;11.762;2022-08-20T14:27:58;98304.38;;;23.49;100.00
17505;BME280;8870;50.950;11.762;2022-08-20T14:33:15;98303.53;;;23.31;100.00
17505;BME280;8870;50.950;11.762;2022-08-20T14:38:19;98295.88;;;23.33;100.00
17505;BME280;8870;50.950;11.762;2022-08-20T14:43:25;98303.72;;;23.42;100.00
17505;BME280;8870;50.950;11.762;2022-08-20T14:48:32;98296.69;;;23.34;100.00
17505;BME280;8870;50.950;11.762;2022-08-20T14:53:37;98296.13;;;23.49;100.00
17505;BME280;8870;50.950;11.762;2022-08-20T14:58:41;98290.72;;;23.54;100.00
17505;BME280;8870;50.950;11.762;2022-08-20T15:03:49;98291.38;;;23.61;100.00
17505;BME280;8870;50.950;11.762;2022-08-20T15:08:54;98292.06;;;23.68;100.00
17505;BME280;8870;50.950;11.762;2022-08-20T15:14:00;98288.13;;;23.81;100.00
17505;BME280;8870;50.950;11.762;2022-08-20T15:19:07;98287.19;;;23.93;100.00
17505;BME280;8870;50.950;11.762;2022-08-20T15:24:15;98285.72;;;24.02;100.00
17505;BME280;8870;50.950;11.762;2022-08-20T15:29:21;98283.09;;;24.12;100.00
17505;BME280;8870;50.950;11.762;2022-08-20T15:34:28;98279.84;;;24.15;100.00
17505;BME280;8870;50.950;11.762;2022-08-20T15:39:33;98270.78;;;24.15;100.00
17505;BME280;8870;50.950;11.762;2022-08-20T15:44:38;98292.34;;;24.23;100.00
17505;BME280;8870;50.950;11.762;2022-08-20T15:49:47;98283.06;;;24.29;100.00
17505;BME280;8870;50.950;11.762;2022-08-20T15:54:52;98287.75;;;24.29;100.00
17505;BME280;8870;50.950;11.762;2022-08-20T16:00:05;98294.59;;;24.26;100.00
17505;BME280;8870;50.950;11.762;2022-08-20T16:05:21;98304.34;;;24.17;100.00
17505;BME280;8870;50.950;11.762;2022-08-20T16:10:30;98313.91;;;24.09;100.00
17505;BME280;8870;50.950;11.762;2022-08-20T16:15:39;98311.56;;;24.01;100.00
17505;BME280;8870;50.950;11.762;2022-08-20T16:20:54;98313.31;;;23.90;100.00
17505;BME280;8870;50.950;11.762;2022-08-20T16:26:12;98318.22;;;23.88;100.00
17505;BME280;8870;50.950;11.762;2022-08-20T16:31:22;98320.72;;;23.90;100.00
17505;BME280;8870;50.950;11.762;2022-08-20T16:36:34;98319.91;;;23.89;100.00
17505;BME280;8870;50.950;11.762;2022-08-20T16:41:43;98320.72;;;23.90;100.00
17505;BME280;8870;50.950;11.762;2022-08-20T16:46:52;98328.34;;;23.99;100.00
17505;BME280;8870;50.950;11.762;2022-08-20T16:52:19;98316.84;;;24.03;100.00
17505;BME280;8870;50.950;11.762;2022-08-20T16:57:25;98329.41;;;23.98;100.00
17505;BME280;8870;50.950;11.762;2022-08-20T17:02:30;98329.22;;;23.88;100.00
17505;BME280;8870;50.950;11.762;2022-08-20T17:07:43;98331.78;;;23.44;100.00
17505;BME280;8870;50.950;11.762;2022-08-20T17:12:54;98351.25;;;23.13;100.00
17505;BME280;8870;50.950;11.762;2022-08-20T17:18:16;98337.06;;;22.75;100.00
17505;BME280;8870;50.950;11.762;2022-08-20T17:23:25;98338.16;;;22.74;100.00
17505;BME280;8870;50.950;11.762;2022-08-20T17:28:30;98348.44;;;22.55;100.00
17505;BME280;8870;50.950;11.762;2022-08-20T17:33:38;98352.59;;;22.34;100.00
17505;BME280;8870;50.950;11.762;2022-08-20T17:38:49;98351.31;;;22.25;100.00
17505;BME280;8870;50.950;11.762;2022-08-20T17:43:56;98353.44;;;22.23;100.00
17505;BME280;8870;50.950;11.762;2022-08-20T17:49:05;98352.13;;;22.25;100.00
17505;BME280;8870;50.950;11.762;2022-08-20T17:54:22;98355.00;;;22.19;100.00
17505;BME280;8870;50.950;11.762;2022-08-20T17:59:56;98351.19;;;22.20;100.00
17505;BME280;8870;50.950;11.762;2022-08-20T18:05:17;98358.25;;;22.15;100.00
17505;BME280;8870;50.950;11.762;2022-08-20T18:10:28;98358.69;;;22.12;100.00
17505;BME280;8870;50.950;11.762;2022-08-20T18:15:44;98357.03;;;22.11;100.00
17505;BME280;8870;50.950;11.762;2022-08-20T18:21:14;98364.06;;;21.95;100.00
17505;BME280;8870;50.950;11.762;2022-08-20T18:26:29;98366.56;;;21.85;100.00
17505;BME280;8870;50.950;11.762;2022-08-20T18:31:42;98370.38;;;21.84;100.00
17505;BME280;8870;50.950;11.762;2022-08-20T18:36:53;98377.75;;;21.83;100.00
17505;BME280;8870;50.950;11.762;2022-08-20T18:42:03;98369.25;;;21.73;100.00
17505;BME280;8870;50.950;11.762;2022-08-20T18:47:19;98377.22;;;21.63;100.00
17505;BME280;8870;50.950;11.762;2022-08-20T18:52:26;98388.25;;;21.56;100.00
17505;BME280;8870;50.950;11.762;2022-08-20T18:57:37;98386.06;;;21.46;100.00
17505;BME280;8870;50.950;11.762;2022-08-20T19:02:53;98386.28;;;21.33;100.00
17505;BME280;8870;50.950;11.762;2022-08-20T19:08:01;98397.81;;;21.23;100.00
17505;BME280;8870;50.950;11.762;2022-08-20T19:13:18;98406.97;;;21.17;100.00
17505;BME280;8870;50.950;11.762;2022-08-20T19:18:36;98398.66;;;21.05;100.00
17505;BME280;8870;50.950;11.762;2022-08-20T19:23:47;98399.00;;;20.97;100.00
17505;BME280;8870;50.950;11.762;2022-08-20T19:28:57;98394.03;;;20.87;100.00
17505;BME280;8870;50.950;11.762;2022-08-20T19:34:06;98406.13;;;20.79;100.00
17505;BME280;8870;50.950;11.762;2022-08-20T19:39:25;98408.09;;;20.72;100.00
17505;BME280;8870;50.950;11.762;2022-08-20T19:44:37;98417.81;;;20.68;100.00
17505;BME280;8870;50.950;11.762;2022-08-20T19:49:54;98425.25;;;20.60;100.00
17505;BME280;8870;50.950;11.762;2022-08-20T19:55:01;98425.28;;;20.35;100.00
17505;BME280;8870;50.950;11.762;2022-08-20T20:00:10;98411.69;;;20.28;100.00
17505;BME280;8870;50.950;11.762;2022-08-20T20:05:16;98415.50;;;20.27;100.00
17505;BME280;8870;50.950;11.762;2022-08-20T20:10:26;98428.38;;;20.20;100.00
17505;BME280;8870;50.950;11.762;2022-08-20T20:15:37;98425.50;;;20.15;100.00
17505;BME280;8870;50.950;11.762;2022-08-20T20:20:44;98429.09;;;20.09;100.00
17505;BME280;8870;50.950;11.762;2022-08-20T20:26:02;98429.19;;;19.95;100.00
17505;BME280;8870;50.950;11.762;2022-08-20T20:31:12;98438.56;;;19.81;100.00
17505;BME280;8870;50.950;11.762;2022-08-20T20:36:30;98432.31;;;19.67;100.00
17505;BME280;8870;50.950;11.762;2022-08-20T20:41:36;98437.66;;;19.55;100.00
17505;BME280;8870;50.950;11.762;2022-08-20T20:46:45;98442.09;;;19.49;100.00
17505;BME280;8870;50.950;11.762;2022-08-20T20:51:55;98437.69;;;19.48;100.00
17505;BME280;8870;50.950;11.762;2022-08-20T20:57:03;98451.56;;;19.47;100.00
17505;BME280;8870;50.950;11.762;2022-08-20T21:02:11;98445.28;;;19.46;100.00
17505;BME280;8870;50.950;11.762;2022-08-20T21:07:20;98446.75;;;19.42;100.00
17505;BME280;8870;50.950;11.762;2022-08-20T21:12:26;98448.91;;;19.33;100.00
17505;BME280;8870;50.950;11.762;2022-08-20T21:17:34;98453.56;;;19.26;100.00
17505;BME280;8870;50.950;11.762;2022-08-20T21:22:41;98460.13;;;19.12;100.00
17505;BME280;8870;50.950;11.762;2022-08-20T21:27:47;98454.09;;;18.96;100.00
17505;BME280;8870;50.950;11.762;2022-08-20T21:32:55;98472.78;;;18.86;100.00
17505;BME280;8870;50.950;11.762;2022-08-20T21:38:00;98469.03;;;18.73;100.00
17505;BME280;8870;50.950;11.762;2022-08-20T21:43:05;98480.59;;;18.62;100.00
17505;BME280;8870;50.950;11.762;2022-08-20T21:48:13;98484.41;;;18.54;100.00
17505;BME280;8870;50.950;11.762;2022-08-20T21:53:18;98495.31;;;18.47;100.00
17505;BME280;8870;50.950;11.762;2022-08-20T21:58:22;98492.56;;;18.47;100.00
17505;BME280;8870;50.950;11.762;2022-08-20T22:03:32;98480.22;;;18.52;100.00
17505;BME280;8870;50.950;11.762;2022-08-20T22:08:39;98477.25;;;18.53;100.00
17505;BME280;8870;50.950;11.762;2022-08-20T22:13:45;98481.25;;;18.57;100.00
17505;BME280;8870;50.950;11.762;2022-08-20T22:18:54;98468.84;;;18.61;100.00
17505;BME280;8870;50.950;11.762;2022-08-20T22:24:01;98469.69;;;18.62;100.00
17505;BME280;8870;50.950;11.762;2022-08-20T22:29:08;98468.66;;;18.63;100.00
17505;BME280;8870;50.950;11.762;2022-08-20T22:34:17;98465.50;;;18.53;100.00
17505;BME280;8870;50.950;11.762;2022-08-20T22:39:28;98465.53;;;18.46;100.00
17505;BME280;8870;50.950;11.762;2022-08-20T22:44:39;98471.59;;;18.35;100.00
17505;BME280;8870;50.950;11.762;2022-08-20T22:49:51;98479.34;;;18.24;100.00
17505;BME280;8870;50.950;11.762;2022-08-20T22:54:57;98489.44;;;18.17;100.00
17505;BME280;8870;50.950;11.762;2022-08-20T23:00:13;98487.75;;;18.16;100.00
17505;BME280;8870;50.950;11.762;2022-08-20T23:05:22;98485.44;;;18.06;100.00
17505;BME280;8870;50.950;11.762;2022-08-20T23:10:36;98494.00;;;17.96;100.00
17505;BME280;8870;50.950;11.762;2022-08-20T23:15:41;98498.81;;;17.87;100.00
17505;BME280;8870;50.950;11.762;2022-08-20T23:20:51;98495.22;;;17.80;100.00
17505;BME280;8870;50.950;11.762;2022-08-20T23:26:02;98501.31;;;17.76;100.00
17505;BME280;8870;50.950;11.762;2022-08-20T23:31:07;98497.50;;;17.77;100.00
17505;BME280;8870;50.950;11.762;2022-08-20T23:36:18;98502.13;;;17.76;100.00
17505;BME280;8870;50.950;11.762;2022-08-20T23:41:24;98505.25;;;17.73;100.00
17505;BME280;8870;50.950;11.762;2022-08-20T23:46:31;98481.38;;;17.75;100.00
17505;BME280;8870;50.950;11.762;2022-08-20T23:51:39;98498.13;;;17.72;100.00
17505;BME280;8870;50.950;11.762;2022-08-20T23:56:44;98501.91;;;17.71;100.00
